Nekoma, Illinois
Current Conditions -  °F | °C
As of 1:35 PM on Monday 22 Dec 2014 (Local Time) from KGBG Reporting Station
Haze Haze  
Wind Chill: 32°   Ceiling: 600
Heat Index: 38°   Visibility: 5mi
Dew Point: 37°   Wind: 8mph
Humidity: 97%   Direction: 130°SE
Pressure: 29.59"   Gusts: NA
Location:  41.194°N, 90.2383°W
Report Text: KGBG 221935Z AUTO 13007KT 5SM BR OVC006 04/03 A2959 RMK AO2 T00350030
Loading
Personal Weather Stations






























Interactive Weather Map New forecast layout! Learn more

10-Day Weather Forecast

Advertisements
Track Severe Weather on mobile